Time;durP1;ratioP1;P1;durP2;ratioP2;P2;SDS_P1;SDS_P2;PMS_P1;PMS_P2;Temp;Humidity;BMP_temperature;BMP_pressure;BME280_temperature;BME280_humidity;BME280_pressure;Samples;Min_cycle;Max_cycle;Signal;HPM_P1;HPM_P2
2023/03/14 00:00:09;;;;;;;1.00;0.30;;;9.60;99.90;;;;;;4983434;28;20274;-71
2023/03/14 00:02:35;;;;;;;2.13;0.30;;;9.70;99.90;;;;;;4982814;28;20305;-70
2023/03/14 00:05:06;;;;;;;0.98;0.30;;;9.70;99.90;;;;;;4982925;28;20042;-71
2023/03/14 00:07:34;;;;;;;1.50;0.30;;;9.60;99.90;;;;;;4983021;28;20042;-71
2023/03/14 00:10:04;;;;;;;1.35;0.30;;;9.60;99.90;;;;;;4981671;28;20101;-71
2023/03/14 00:12:30;;;;;;;1.98;0.30;;;9.60;99.90;;;;;;4981942;28;20053;-70
2023/03/14 00:14:55;;;;;;;1.02;0.40;;;9.60;99.90;;;;;;4982530;28;20034;-71
2023/03/14 00:17:21;;;;;;;2.67;0.47;;;9.60;99.90;;;;;;4983235;28;20054;-71
2023/03/14 00:19:47;;;;;;;1.40;0.30;;;9.60;99.90;;;;;;4982737;28;20041;-68
2023/03/14 00:22:12;;;;;;;1.65;0.30;;;9.60;99.90;;;;;;4983160;28;20077;-68
2023/03/14 00:24:38;;;;;;;1.30;0.47;;;9.60;99.90;;;;;;4982824;28;20229;-69
2023/03/14 00:27:04;;;;;;;2.15;0.28;;;9.60;99.90;;;;;;4965424;28;20045;-69
2023/03/14 00:29:30;;;;;;;1.55;0.40;;;9.60;99.90;;;;;;4982765;28;20074;-70
2023/03/14 06:02:37;;;;;;;2.45;0.43;;;9.60;99.90;;;;;;5432419;23;20055;-71
2023/03/14 06:05:12;;;;;;;2.65;0.40;;;9.70;99.90;;;;;;4967132;28;20065;-72
2023/03/14 06:07:39;;;;;;;2.90;0.50;;;9.70;99.90;;;;;;4967900;28;20110;-71
2023/03/14 06:10:05;;;;;;;3.30;0.50;;;9.60;99.90;;;;;;4967280;28;20023;-71
2023/03/14 06:12:31;;;;;;;4.35;0.63;;;9.60;99.90;;;;;;4967657;28;20031;-71
2023/03/14 06:14:57;;;;;;;3.05;0.60;;;9.50;99.90;;;;;;4983922;28;20035;-71
2023/03/14 06:17:23;;;;;;;5.05;0.77;;;9.50;99.90;;;;;;4967396;28;20098;-71
2023/03/14 06:19:56;;;;;;;3.60;0.43;;;9.50;99.90;;;;;;4967744;28;20362;-70
2023/03/14 06:22:22;;;;;;;2.25;0.60;;;9.50;99.90;;;;;;4967194;28;20117;-71
2023/03/14 06:24:48;;;;;;;2.95;1.15;;;9.60;99.90;;;;;;4967799;28;20039;-73
2023/03/14 06:27:15;;;;;;;2.90;0.47;;;9.60;99.90;;;;;;4967076;28;20106;-70
2023/03/14 06:29:41;;;;;;;4.18;0.52;;;9.70;99.90;;;;;;4967491;28;20023;-69
2023/03/14 06:32:07;;;;;;;3.88;0.70;;;9.70;99.90;;;;;;4966353;28;20401;-71
2023/03/14 06:34:33;;;;;;;3.17;0.65;;;9.70;99.90;;;;;;4967103;28;20038;-71
2023/03/14 06:36:59;;;;;;;4.03;0.70;;;9.70;99.90;;;;;;4984658;28;20240;-73
2023/03/14 06:39:25;;;;;;;3.17;0.73;;;9.70;99.90;;;;;;4966916;28;20027;-72
2023/03/14 06:42:00;;;;;;;2.40;0.47;;;9.80;99.90;;;;;;4967381;28;20169;-70
2023/03/14 06:44:26;;;;;;;1.23;0.30;;;9.90;99.90;;;;;;4966842;28;20098;-70
2023/03/14 06:46:51;;;;;;;3.60;0.45;;;10.00;99.90;;;;;;4967442;28;20252;-70
2023/03/14 06:49:17;;;;;;;4.05;0.60;;;10.00;99.90;;;;;;4950880;28;20045;-70
2023/03/14 06:51:44;;;;;;;3.80;0.55;;;10.00;99.90;;;;;;4967280;28;20050;-70
2023/03/14 06:54:11;;;;;;;2.13;0.50;;;10.10;99.90;;;;;;4966636;28;20248;-70
2023/03/14 06:56:36;;;;;;;1.85;0.45;;;10.10;99.90;;;;;;4984475;28;20093;-70
2023/03/14 06:59:02;;;;;;;1.90;0.30;;;10.10;99.90;;;;;;4977391;28;20193;-70
2023/03/14 07:01:34;;;;;;;3.70;0.50;;;10.20;99.90;;;;;;4963618;28;20027;-70
2023/03/14 07:04:11;;;;;;;2.00;0.40;;;10.30;99.90;;;;;;4963076;28;20037;-70
2023/03/14 07:06:44;;;;;;;1.75;0.30;;;10.60;99.90;;;;;;4963579;28;20019;-69
2023/03/14 07:09:14;;;;;;;2.90;0.30;;;10.80;99.90;;;;;;4963821;28;20042;-70
2023/03/14 07:11:44;;;;;;;2.60;0.40;;;11.00;99.90;;;;;;4950846;28;20035;-71
2023/03/14 07:14:10;;;;;;;2.85;0.28;;;11.20;99.90;;;;;;4963829;28;20043;-70
2023/03/14 07:16:36;;;;;;;1.55;0.20;;;11.20;99.90;;;;;;4962357;28;20031;-70
2023/03/14 07:19:02;;;;;;;2.03;0.15;;;11.20;99.90;;;;;;4963197;28;20215;-70
2023/03/14 07:21:28;;;;;;;3.17;0.28;;;11.40;99.90;;;;;;4946778;29;20070;-71
2023/03/14 07:23:54;;;;;;;2.95;0.38;;;11.40;99.90;;;;;;4952124;28;20337;-71
2023/03/14 07:26:21;;;;;;;1.50;0.20;;;11.60;99.90;;;;;;4945315;29;20058;-71
2023/03/14 07:28:50;;;;;;;1.52;0.20;;;11.70;99.90;;;;;;4946993;29;20045;-70
2023/03/14 07:31:18;;;;;;;1.88;0.30;;;11.70;99.90;;;;;;4962497;28;20031;-71
2023/03/14 07:33:44;;;;;;;1.00;0.20;;;11.80;99.90;;;;;;4963824;28;20042;-75
2023/03/14 07:36:10;;;;;;;2.00;0.20;;;11.90;99.90;;;;;;4963424;28;20042;-70
2023/03/14 07:38:38;;;;;;;2.55;0.20;;;12.00;99.90;;;;;;4962821;28;20030;-70
2023/03/14 07:41:31;;;;;;;1.40;0.30;;;12.00;99.90;;;;;;4962677;28;20213;-71
2023/03/14 07:44:16;;;;;;;2.30;0.20;;;12.20;99.90;;;;;;4963075;28;20083;-71
2023/03/14 07:46:42;;;;;;;1.10;0.20;;;12.30;99.90;;;;;;4963596;28;20070;-70
2023/03/14 07:49:07;;;;;;;1.65;0.20;;;12.30;99.90;;;;;;4963645;28;20031;-71
2023/03/14 07:51:33;;;;;;;2.35;0.20;;;12.50;99.90;;;;;;4962330;28;20360;-71
2023/03/14 07:53:59;;;;;;;3.72;0.22;;;12.50;99.90;;;;;;4963424;28;20023;-69
2023/03/14 07:56:24;;;;;;;0.93;0.70;;;12.60;99.90;;;;;;4962981;28;20346;-70
2023/03/14 07:58:50;;;;;;;2.17;0.30;;;12.50;99.90;;;;;;4963615;29;20063;-70
2023/03/14 08:01:16;;;;;;;1.13;0.30;;;12.60;99.90;;;;;;4946129;28;20019;-70
2023/03/14 08:03:41;;;;;;;1.13;0.10;;;12.70;99.90;;;;;;4962842;28;20043;-71
2023/03/14 08:06:07;;;;;;;1.23;0.20;;;12.70;99.90;;;;;;4961187;28;20039;-70
2023/03/14 08:08:33;;;;;;;1.20;0.30;;;12.70;99.90;;;;;;4961498;28;20380;-70
2023/03/14 08:11:04;;;;;;;0.90;0.20;;;12.70;99.90;;;;;;4962632;28;20035;-70
2023/03/14 08:13:29;;;;;;;1.38;0.30;;;12.80;99.90;;;;;;4961834;28;20317;-71
2023/03/14 08:15:55;;;;;;;1.00;0.20;;;12.90;99.60;;;;;;4963139;28;20049;-71
2023/03/14 08:18:21;;;;;;;1.02;0.20;;;13.00;99.60;;;;;;4962287;28;20031;-69
2023/03/14 08:20:46;;;;;;;2.20;0.20;;;13.10;99.00;;;;;;4962754;28;20031;-69
2023/03/14 08:23:12;;;;;;;2.42;0.25;;;13.20;98.70;;;;;;4962370;28;20054;-69
2023/03/14 08:25:38;;;;;;;2.30;0.20;;;13.20;98.50;;;;;;4962397;28;20035;-68
2023/03/14 08:28:04;;;;;;;1.75;0.30;;;13.20;98.20;;;;;;4963012;28;20023;-69
2023/03/14 08:30:30;;;;;;;2.17;0.20;;;13.20;98.30;;;;;;4945056;29;20023;-70
2023/03/14 08:32:58;;;;;;;1.10;0.10;;;13.40;98.20;;;;;;4962078;28;20134;-72
2023/03/14 08:35:25;;;;;;;0.98;0.28;;;13.50;97.60;;;;;;4959365;28;20054;-71
2023/03/14 08:37:52;;;;;;;2.40;0.60;;;13.70;97.40;;;;;;4954980;28;20055;-69
2023/03/14 08:40:18;;;;;;;1.60;0.30;;;13.90;96.70;;;;;;4955479;28;20209;-69
2023/03/14 08:42:44;;;;;;;0.77;0.10;;;14.00;96.30;;;;;;4950928;28;20325;-70
2023/03/14 08:45:12;;;;;;;2.63;1.00;;;14.30;96.00;;;;;;4938278;29;20078;-72
2023/03/14 08:47:38;;;;;;;2.35;0.20;;;14.30;95.00;;;;;;4958198;28;20186;-70
2023/03/14 08:50:05;;;;;;;1.13;0.30;;;14.30;94.90;;;;;;4962294;28;20071;-71
2023/03/14 08:52:31;;;;;;;1.63;0.20;;;14.30;94.30;;;;;;4961842;28;20122;-71
2023/03/14 08:54:57;;;;;;;0.80;0.10;;;13.90;94.50;;;;;;4944937;29;20185;-69
2023/03/14 08:57:27;;;;;;;3.40;0.22;;;13.80;94.80;;;;;;4961667;28;20316;-69
2023/03/14 08:59:55;;;;;;;1.45;0.13;;;13.80;95.00;;;;;;4962048;28;20102;-70
2023/03/14 09:02:21;;;;;;;1.63;0.10;;;14.00;94.90;;;;;;4924309;28;1090276;-71
2023/03/14 09:04:46;;;;;;;0.63;0.10;;;13.80;94.70;;;;;;4963285;28;20035;-70
2023/03/14 09:07:12;;;;;;;0.85;0.10;;;14.10;94.80;;;;;;4966229;28;20655;-71
2023/03/14 09:09:38;;;;;;;0.60;0.13;;;14.30;94.40;;;;;;4966857;28;20035;-70
2023/03/14 09:12:04;;;;;;;0.35;0.10;;;14.10;94.40;;;;;;4960718;28;20090;-71
2023/03/14 09:14:31;;;;;;;1.45;0.10;;;14.10;94.80;;;;;;4966319;28;20050;-71
2023/03/14 09:16:57;;;;;;;0.65;0.10;;;14.20;94.80;;;;;;4966199;28;20035;-70
2023/03/14 09:19:23;;;;;;;0.70;0.10;;;14.10;95.20;;;;;;4966006;28;20206;-70
2023/03/14 09:21:49;;;;;;;0.82;0.17;;;14.10;94.90;;;;;;4966590;28;20038;-71
2023/03/14 09:24:16;;;;;;;0.55;0.10;;;14.10;95.40;;;;;;4965724;28;20039;-71
2023/03/14 09:26:42;;;;;;;1.73;0.20;;;14.10;95.70;;;;;;4949448;29;20039;-71
2023/03/14 09:29:07;;;;;;;0.25;0.10;;;14.10;96.00;;;;;;4965574;28;20217;-69
2023/03/14 09:31:33;;;;;;;0.30;0.10;;;14.20;95.60;;;;;;4966045;28;20034;-73
2023/03/14 09:33:59;;;;;;;1.27;0.20;;;14.20;95.90;;;;;;4974181;28;20044;-70
2023/03/14 09:36:25;;;;;;;1.15;0.32;;;14.30;95.70;;;;;;4946683;29;20106;-69
2023/03/14 09:38:51;;;;;;;0.70;0.10;;;14.40;95.00;;;;;;4963765;28;20019;-71
2023/03/14 09:41:27;;;;;;;1.00;0.10;;;14.30;95.80;;;;;;4966028;28;20039;-71
2023/03/14 09:44:08;;;;;;;0.52;0.10;;;14.50;95.50;;;;;;4965676;28;20035;-72
2023/03/14 09:46:36;;;;;;;0.60;0.10;;;14.60;95.50;;;;;;4966045;28;20039;-70
2023/03/14 09:49:07;;;;;;;1.05;0.10;;;14.60;95.60;;;;;;4966169;28;20340;-70
2023/03/14 09:51:34;;;;;;;0.75;0.10;;;14.40;95.00;;;;;;4966009;28;20078;-71
2023/03/14 09:54:00;;;;;;;0.70;0.10;;;14.30;95.20;;;;;;4966055;28;20046;-70
2023/03/14 09:56:31;;;;;;;0.73;0.10;;;14.10;95.20;;;;;;4948058;29;20248;-69
2023/03/14 09:59:00;;;;;;;0.25;0.10;;;14.10;94.70;;;;;;4965849;28;20034;-69
2023/03/14 10:01:29;;;;;;;0.32;0.00;;;13.90;95.00;;;;;;4964753;28;20039;-70
2023/03/14 10:03:57;;;;;;;0.80;0.17;;;14.00;94.60;;;;;;4966001;28;20039;-71
2023/03/14 10:06:27;;;;;;;0.25;0.00;;;14.00;94.70;;;;;;4945692;29;20038;-71
2023/03/14 10:08:55;;;;;;;0.40;0.10;;;13.90;94.70;;;;;;4963878;28;20218;-72
2023/03/14 10:11:21;;;;;;;0.70;0.10;;;14.00;94.70;;;;;;4958333;28;20031;-69
2023/03/14 10:14:08;;;;;;;0.98;0.10;;;13.90;95.00;;;;;;4965371;28;20043;-72
2023/03/14 10:16:40;;;;;;;1.90;0.10;;;13.90;95.30;;;;;;4964997;28;20045;-71
2023/03/14 10:19:10;;;;;;;0.10;0.00;;;14.00;95.40;;;;;;4965479;28;20062;-71
2023/03/14 10:21:41;;;;;;;0.40;0.00;;;13.90;95.30;;;;;;4965402;28;20352;-70
2023/03/14 10:24:19;;;;;;;0.30;0.10;;;13.90;95.00;;;;;;4965372;28;20197;-71
2023/03/14 10:26:49;;;;;;;1.38;0.10;;;13.90;94.80;;;;;;4965513;28;20118;-68
2023/03/14 10:29:16;;;;;;;0.45;0.13;;;14.00;95.00;;;;;;4964549;28;20039;-71
2023/03/14 10:32:03;;;;;;;0.57;0.10;;;14.30;94.10;;;;;;4965131;28;20051;-70
2023/03/14 10:34:39;;;;;;;0.75;0.10;;;14.50;93.90;;;;;;4964417;28;20253;-70
2023/03/14 10:37:25;;;;;;;0.40;0.10;;;14.70;93.00;;;;;;4965238;28;20313;-72
2023/03/14 10:39:54;;;;;;;0.63;0.10;;;14.80;92.80;;;;;;4964039;28;20035;-69
2023/03/14 10:42:31;;;;;;;0.82;0.10;;;14.80;92.90;;;;;;4964350;28;20043;-68
2023/03/14 10:45:27;;;;;;;0.60;0.03;;;14.60;93.00;;;;;;4965011;28;20051;-72
2023/03/14 10:47:53;;;;;;;0.20;0.05;;;14.80;92.70;;;;;;4964889;28;20106;-74
2023/03/14 10:50:29;;;;;;;0.50;0.10;;;14.80;92.90;;;;;;4964340;28;20346;-71
2023/03/14 10:52:55;;;;;;;1.17;0.30;;;15.00;92.60;;;;;;4965008;28;20047;-68
2023/03/14 10:55:24;;;;;;;0.20;0.00;;;14.90;92.20;;;;;;4964234;28;20062;-71
2023/03/14 10:57:50;;;;;;;1.50;0.10;;;14.70;92.70;;;;;;4964851;28;20034;-71
2023/03/14 11:00:21;;;;;;;0.73;0.10;;;14.60;92.90;;;;;;4964275;28;20037;-70
2023/03/14 11:03:03;;;;;;;0.45;0.10;;;14.60;93.70;;;;;;4964122;28;20101;-69
2023/03/14 11:05:38;;;;;;;0.68;0.10;;;14.60;93.50;;;;;;4964068;28;20414;-70
2023/03/14 11:08:13;;;;;;;1.92;0.25;;;14.30;93.80;;;;;;4964304;28;20208;-71
2023/03/14 11:10:42;;;;;;;1.08;0.20;;;14.10;95.90;;;;;;4964605;28;20046;-71
2023/03/14 11:13:36;;;;;;;0.20;0.03;;;13.50;98.10;;;;;;4964523;28;20074;-71
2023/03/14 11:16:21;;;;;;;1.08;0.17;;;13.30;97.70;;;;;;4964214;28;20035;-72
2023/03/14 11:19:14;;;;;;;0.50;0.10;;;13.20;98.10;;;;;;4964284;28;20058;-70
2023/03/14 11:22:12;;;;;;;2.00;0.10;;;13.20;97.80;;;;;;4964415;28;20034;-71
2023/03/14 11:25:11;;;;;;;0.55;0.10;;;13.30;97.70;;;;;;4963694;28;20201;-72
2023/03/14 11:27:37;;;;;;;1.20;0.10;;;13.00;99.90;;;;;;4963081;28;20038;-71
2023/03/14 11:30:16;;;;;;;0.90;0.10;;;12.50;99.90;;;;;;4964201;28;20028;-71
2023/03/14 11:32:50;;;;;;;1.35;0.20;;;12.10;99.90;;;;;;4964154;28;20039;-71
2023/03/14 11:35:20;;;;;;;1.13;0.20;;;11.80;99.90;;;;;;4963944;28;20106;-71
2023/03/14 11:37:56;;;;;;;1.67;0.10;;;11.80;99.90;;;;;;4963981;28;20178;-69
2023/03/14 11:40:27;;;;;;;1.25;0.10;;;11.70;99.90;;;;;;4962678;28;20339;-70
2023/03/14 11:43:08;;;;;;;1.05;0.10;;;11.60;99.90;;;;;;4964064;28;20396;-72
2023/03/14 11:45:40;;;;;;;2.53;0.10;;;11.80;99.90;;;;;;4963584;29;20197;-71
2023/03/14 11:48:36;;;;;;;1.13;0.20;;;11.90;99.90;;;;;;4963881;28;20035;-71
2023/03/14 11:51:08;;;;;;;0.38;0.10;;;12.00;99.90;;;;;;4963900;28;20042;-72
2023/03/14 11:53:39;;;;;;;0.47;0.10;;;12.00;99.90;;;;;;4963317;28;20403;-72
2023/03/14 11:56:16;;;;;;;0.50;0.10;;;11.90;99.90;;;;;;4963752;28;20031;-71
2023/03/14 11:58:51;;;;;;;0.82;0.20;;;11.90;99.90;;;;;;4964047;28;20099;-70
2023/03/14 12:01:24;;;;;;;0.47;0.10;;;11.80;99.90;;;;;;4964116;28;20057;-75
2023/03/14 12:04:21;;;;;;;1.10;0.25;;;11.70;99.90;;;;;;4964582;28;20050;-71
2023/03/14 12:06:50;;;;;;;1.00;0.22;;;11.80;99.90;;;;;;4968823;28;20061;-73
2023/03/14 12:09:21;;;;;;;2.03;0.30;;;12.00;99.90;;;;;;4962114;28;20066;-70
2023/03/14 12:11:57;;;;;;;0.70;0.20;;;12.20;99.90;;;;;;4965535;28;20039;-72
2023/03/14 12:14:31;;;;;;;2.42;0.10;;;12.40;99.90;;;;;;4964522;28;20083;-72
2023/03/14 12:17:04;;;;;;;0.85;0.10;;;12.40;99.90;;;;;;4965224;28;20397;-74
2023/03/14 12:19:32;;;;;;;0.52;0.10;;;12.30;99.90;;;;;;4964809;28;20039;-70
2023/03/14 12:22:30;;;;;;;0.45;0.10;;;12.20;99.90;;;;;;4971952;28;20062;-70
2023/03/14 12:25:18;;;;;;;0.43;0.00;;;12.30;99.90;;;;;;4957162;28;20261;-70
2023/03/14 12:28:24;;;;;;;1.02;0.10;;;12.30;99.90;;;;;;4963286;28;20035;-71
2023/03/14 12:30:50;;;;;;;0.73;0.10;;;12.80;99.90;;;;;;4956133;28;20064;-70
2023/03/14 12:33:18;;;;;;;0.70;0.20;;;13.80;99.90;;;;;;4962753;28;20329;-72
2023/03/14 12:36:04;;;;;;;0.32;0.10;;;14.20;98.10;;;;;;4964938;28;20214;-71
2023/03/14 12:38:36;;;;;;;1.55;0.10;;;13.80;97.10;;;;;;4964356;28;20062;-69
2023/03/14 12:41:15;;;;;;;0.40;0.10;;;14.10;95.60;;;;;;4968360;28;20032;-69
2023/03/14 12:43:41;;;;;;;0.40;0.10;;;14.60;94.20;;;;;;4968372;28;20028;-71
2023/03/14 12:46:08;;;;;;;0.40;0.10;;;14.80;92.20;;;;;;4968221;28;20105;-70
2023/03/14 12:48:34;;;;;;;1.83;0.10;;;15.40;91.10;;;;;;4967462;28;20035;-70
2023/03/14 12:51:12;;;;;;;1.05;0.20;;;16.00;89.30;;;;;;4968119;28;20042;-72
2023/03/14 12:53:59;;;;;;;1.30;0.23;;;16.60;83.70;;;;;;4965923;28;20046;-69
2023/03/14 12:56:46;;;;;;;1.52;0.10;;;17.30;79.70;;;;;;4967134;28;20023;-68
2023/03/14 12:59:34;;;;;;;0.45;0.10;;;17.60;75.00;;;;;;4968388;28;20042;-70
2023/03/14 13:02:07;;;;;;;1.20;0.30;;;17.60;73.50;;;;;;4965501;28;20071;-70
2023/03/14 13:04:35;;;;;;;1.35;0.22;;;17.70;72.90;;;;;;4966656;28;20042;-68
2023/03/14 13:07:02;;;;;;;0.80;0.27;;;17.10;72.80;;;;;;4966454;28;20098;-70
2023/03/14 13:09:32;;;;;;;0.75;0.15;;;16.20;74.40;;;;;;4966451;28;20035;-71
2023/03/14 13:12:08;;;;;;;1.38;0.20;;;16.20;75.10;;;;;;4966502;28;20054;-70
2023/03/14 13:14:34;;;;;;;2.13;0.20;;;16.50;74.70;;;;;;4966284;28;20273;-71
2023/03/14 13:17:01;;;;;;;1.33;0.15;;;15.80;74.70;;;;;;4966795;28;20027;-69
2023/03/14 13:19:30;;;;;;;1.95;0.20;;;14.80;76.50;;;;;;4966288;28;20313;-68
2023/03/14 13:22:04;;;;;;;1.80;0.20;;;14.80;77.30;;;;;;4966246;28;20321;-69
2023/03/14 13:24:34;;;;;;;1.95;0.20;;;14.90;76.60;;;;;;4964601;28;20194;-69
2023/03/14 13:27:00;;;;;;;1.42;0.20;;;14.90;76.50;;;;;;4966566;28;20039;-69
2023/03/14 13:29:26;;;;;;;1.15;0.20;;;14.30;76.40;;;;;;4965771;28;20101;-70
2023/03/14 13:32:15;;;;;;;2.15;0.30;;;13.80;77.40;;;;;;4964872;28;20309;-72
2023/03/14 13:34:41;;;;;;;2.33;0.30;;;13.20;76.70;;;;;;4966051;28;20094;-71
2023/03/14 13:37:16;;;;;;;3.15;0.60;;;12.70;78.50;;;;;;4966343;28;20276;-71
2023/03/14 13:39:42;;;;;;;1.95;0.30;;;12.40;78.70;;;;;;4966618;28;20039;-71
2023/03/14 13:42:15;;;;;;;1.38;0.20;;;12.30;79.30;;;;;;4966383;28;20090;-72
2023/03/14 13:44:40;;;;;;;2.45;0.30;;;12.20;78.70;;;;;;4964946;28;20256;-71
2023/03/14 13:47:14;;;;;;;2.33;0.30;;;12.00;79.40;;;;;;4965947;28;20031;-71
2023/03/14 13:49:40;;;;;;;2.20;0.30;;;12.20;78.60;;;;;;4966146;28;20321;-71
2023/03/14 13:52:25;;;;;;;2.88;0.50;;;12.80;77.00;;;;;;4964934;28;20078;-72
2023/03/14 13:54:57;;;;;;;2.20;0.30;;;12.60;75.30;;;;;;4965781;29;20031;-71
2023/03/14 13:57:23;;;;;;;3.42;0.30;;;12.50;75.80;;;;;;4965141;28;20280;-71
2023/03/14 14:00:09;;;;;;;2.10;0.65;;;12.50;76.10;;;;;;4965926;28;20309;-70
2023/03/14 14:02:38;;;;;;;1.08;0.32;;;12.20;74.60;;;;;;4965601;28;20059;-73
2023/03/14 14:05:05;;;;;;;5.20;0.50;;;11.60;74.20;;;;;;4965817;28;20174;-71
2023/03/14 14:07:30;;;;;;;0.82;0.20;;;11.40;75.10;;;;;;4965172;28;20034;-70
2023/03/14 14:10:00;;;;;;;1.70;0.30;;;11.30;75.90;;;;;;4965922;28;20035;-72
2023/03/14 14:12:31;;;;;;;2.45;0.30;;;11.20;75.10;;;;;;4964977;28;20053;-71
2023/03/14 14:15:15;;;;;;;1.92;0.30;;;11.30;75.10;;;;;;4965465;28;20050;-70
2023/03/14 14:17:52;;;;;;;2.30;0.30;;;11.10;75.90;;;;;;4965454;28;20050;-72
2023/03/14 14:20:43;;;;;;;2.22;0.40;;;11.10;75.80;;;;;;4965035;28;20050;-70
2023/03/14 14:23:17;;;;;;;2.28;0.35;;;11.30;73.60;;;;;;4965146;28;20062;-72
2023/03/14 14:25:44;;;;;;;2.10;0.32;;;11.30;72.30;;;;;;4965556;28;20089;-73
2023/03/14 14:28:31;;;;;;;1.92;0.20;;;11.30;72.30;;;;;;4965179;28;20059;-72
2023/03/14 14:31:14;;;;;;;1.63;0.27;;;11.30;73.00;;;;;;4965630;28;20142;-74
2023/03/14 14:33:42;;;;;;;2.67;0.30;;;11.10;72.30;;;;;;4965343;28;20051;-72
2023/03/14 14:36:30;;;;;;;1.25;0.32;;;10.90;72.30;;;;;;4965398;28;20094;-72
2023/03/14 14:39:02;;;;;;;1.45;0.35;;;10.80;73.20;;;;;;4965276;28;20042;-72
2023/03/14 14:41:30;;;;;;;3.42;0.38;;;10.80;73.50;;;;;;4964637;28;20078;-74
2023/03/14 14:43:57;;;;;;;2.25;0.38;;;10.90;73.90;;;;;;4965256;28;20038;-72
2023/03/14 14:46:25;;;;;;;3.05;0.40;;;10.80;73.80;;;;;;4964503;28;20240;-73
2023/03/14 14:48:56;;;;;;;2.53;0.55;;;10.90;74.50;;;;;;4965075;28;20082;-72
2023/03/14 14:51:25;;;;;;;1.08;0.30;;;10.90;74.10;;;;;;4964651;28;20024;-72
2023/03/14 14:54:05;;;;;;;1.80;0.20;;;10.80;74.30;;;;;;4964694;29;20075;-72
2023/03/14 14:56:35;;;;;;;3.20;0.50;;;10.70;74.10;;;;;;4951074;29;20031;-72
2023/03/14 14:59:04;;;;;;;1.98;0.35;;;10.60;74.00;;;;;;4965056;28;20043;-72
2023/03/14 15:01:39;;;;;;;2.47;0.40;;;10.50;74.90;;;;;;4963657;28;20043;-73
2023/03/14 15:04:13;;;;;;;3.15;0.40;;;10.40;75.10;;;;;;4965181;28;20190;-72
2023/03/14 15:06:41;;;;;;;5.03;0.60;;;10.50;75.30;;;;;;4964573;28;20038;-72
2023/03/14 15:09:10;;;;;;;4.18;0.55;;;10.60;75.30;;;;;;4964520;28;20039;-71
2023/03/14 15:11:37;;;;;;;3.90;0.50;;;10.80;74.20;;;;;;4964154;28;20058;-74
2023/03/14 15:14:03;;;;;;;3.75;0.50;;;10.90;74.20;;;;;;4964106;28;20035;-70
2023/03/14 15:16:30;;;;;;;2.85;0.50;;;11.10;73.80;;;;;;4963502;28;20094;-70
2023/03/14 15:18:58;;;;;;;4.40;0.60;;;11.60;73.40;;;;;;4964068;28;20099;-73
2023/03/14 15:21:25;;;;;;;6.22;0.63;;;11.70;72.40;;;;;;4964014;28;20308;-73
2023/03/14 15:23:51;;;;;;;2.65;0.50;;;11.80;72.60;;;;;;4964556;28;20111;-72
2023/03/14 15:26:20;;;;;;;4.45;0.60;;;12.70;71.60;;;;;;4963756;28;20031;-72
2023/03/14 15:28:46;;;;;;;3.17;0.40;;;15.20;68.90;;;;;;4964611;28;20094;-72
2023/03/14 15:31:14;;;;;;;2.50;0.73;;;17.20;62.50;;;;;;4963402;28;20039;-72
2023/03/14 15:33:40;;;;;;;1.65;0.40;;;17.20;61.80;;;;;;4947342;29;20423;-73
2023/03/14 15:36:20;;;;;;;3.13;0.50;;;16.90;61.90;;;;;;4964419;28;20090;-71
2023/03/14 15:38:46;;;;;;;4.22;0.90;;;16.30;61.90;;;;;;4964175;28;20135;-71
2023/03/14 15:41:11;;;;;;;1.95;0.40;;;15.40;63.70;;;;;;4964197;28;20043;-71
2023/03/14 15:43:37;;;;;;;2.47;0.30;;;14.30;65.60;;;;;;4963742;28;20031;-72
2023/03/14 15:46:06;;;;;;;3.38;0.60;;;14.60;66.80;;;;;;4963812;28;20026;-72
2023/03/14 15:48:31;;;;;;;3.03;0.50;;;14.30;66.10;;;;;;4962012;28;20042;-70
2023/03/14 15:50:57;;;;;;;3.55;0.63;;;14.60;66.50;;;;;;4963996;28;20050;-70
2023/03/14 15:53:23;;;;;;;2.70;0.50;;;15.10;65.10;;;;;;4963488;29;20039;-72
2023/03/14 15:55:48;;;;;;;3.05;0.60;;;14.50;65.90;;;;;;4964082;29;20058;-72
2023/03/14 15:58:17;;;;;;;2.05;0.30;;;15.50;64.10;;;;;;4946481;29;20028;-73
2023/03/14 16:00:42;;;;;;;;;;;16.50;62.80;;;;;;4947488;28;20214;-72
2023/03/14 16:03:08;;;;;;;1.70;0.50;;;17.70;60.50;;;;;;4964050;28;19965;-72
2023/03/14 16:05:34;;;;;;;4.00;0.80;;;18.00;60.10;;;;;;4963672;28;20035;-71
2023/03/14 16:08:01;;;;;;;1.67;0.30;;;18.20;59.10;;;;;;4963749;28;20113;-73
2023/03/14 16:10:27;;;;;;;3.53;0.57;;;18.90;58.40;;;;;;4963261;28;20023;-72
2023/03/14 16:12:52;;;;;;;2.20;0.43;;;18.30;58.40;;;;;;4963957;28;20046;-75
2023/03/14 16:15:18;;;;;;;2.72;0.43;;;16.60;60.40;;;;;;4962734;28;20031;-70
2023/03/14 16:17:44;;;;;;;2.80;0.40;;;15.10;63.50;;;;;;4963906;28;20117;-71
2023/03/14 16:20:11;;;;;;;2.38;0.40;;;14.00;65.80;;;;;;4962562;28;20035;-73
2023/03/14 16:22:37;;;;;;;1.98;0.50;;;13.10;67.90;;;;;;4963395;28;20039;-70
2023/03/14 16:25:06;;;;;;;2.22;0.73;;;12.90;69.00;;;;;;4963424;28;20328;-72
2023/03/14 16:27:32;;;;;;;3.28;0.50;;;12.70;69.50;;;;;;4963247;28;20154;-73
2023/03/14 16:30:01;;;;;;;2.75;0.50;;;12.40;69.70;;;;;;4963752;28;20025;-71
2023/03/14 16:32:27;;;;;;;3.58;0.50;;;12.20;71.00;;;;;;4963009;28;20163;-71
2023/03/14 16:34:53;;;;;;;4.13;0.80;;;12.60;71.10;;;;;;4963643;28;20046;-72
2023/03/14 16:37:20;;;;;;;2.63;0.57;;;12.60;70.00;;;;;;4962995;28;20102;-72
2023/03/14 16:39:49;;;;;;;4.18;0.85;;;12.20;72.20;;;;;;4963519;28;20094;-73
2023/03/14 16:42:18;;;;;;;4.72;0.63;;;11.60;72.60;;;;;;4946440;28;20062;-72
2023/03/14 16:44:44;;;;;;;5.60;0.70;;;11.20;74.10;;;;;;4963359;28;20043;-73
2023/03/14 16:47:10;;;;;;;5.45;0.70;;;11.00;74.90;;;;;;4963580;28;20133;-72
2023/03/14 16:49:36;;;;;;;3.47;0.43;;;10.60;75.80;;;;;;4963113;28;20054;-74
2023/03/14 16:52:02;;;;;;;4.38;0.85;;;10.60;76.30;;;;;;4976570;28;20129;-74
2023/03/14 16:54:28;;;;;;;7.03;1.50;;;10.40;76.70;;;;;;4962559;28;20031;-75
2023/03/14 16:56:53;;;;;;;5.07;1.25;;;10.30;77.40;;;;;;4963118;29;20221;-75
2023/03/14 16:59:19;;;;;;;4.68;0.65;;;10.20;77.80;;;;;;4962686;28;20031;-73
2023/03/14 17:01:45;;;;;;;1.85;0.60;;;10.10;78.30;;;;;;4962973;28;20282;-73
2023/03/14 17:04:11;;;;;;;3.83;0.80;;;10.00;78.90;;;;;;4963305;28;20035;-72
2023/03/14 17:06:44;;;;;;;3.00;0.60;;;10.10;79.10;;;;;;4962680;28;20024;-72
2023/03/14 17:09:15;;;;;;;3.90;0.60;;;10.00;78.70;;;;;;4962855;28;20036;-72
2023/03/14 17:11:41;;;;;;;4.30;0.80;;;10.00;79.10;;;;;;4962541;28;20037;-72
2023/03/14 17:14:07;;;;;;;4.40;0.60;;;9.90;79.10;;;;;;4962951;28;20054;-71
2023/03/14 17:16:32;;;;;;;4.35;0.80;;;9.90;79.70;;;;;;4962596;28;20031;-71
2023/03/14 17:18:58;;;;;;;3.50;0.80;;;9.80;79.50;;;;;;4963441;28;20339;-71
2023/03/14 17:21:24;;;;;;;2.80;0.77;;;9.80;80.40;;;;;;4961435;28;20240;-72
2023/03/14 17:23:50;;;;;;;4.40;0.70;;;9.80;80.60;;;;;;4962824;28;20059;-71
2023/03/14 17:26:18;;;;;;;3.92;0.98;;;9.80;81.40;;;;;;4947081;29;20061;-72
2023/03/14 17:28:45;;;;;;;2.53;0.57;;;9.60;86.70;;;;;;4966121;28;20340;-72
2023/03/14 17:31:18;;;;;;;3.75;0.68;;;9.30;90.10;;;;;;4966393;28;20309;-73
2023/03/14 17:33:44;;;;;;;4.20;0.70;;;9.10;91.00;;;;;;4966000;28;20047;-73
2023/03/14 17:36:12;;;;;;;4.75;0.85;;;8.90;91.90;;;;;;4966423;28;20392;-73
2023/03/14 17:38:38;;;;;;;4.03;0.98;;;8.80;93.00;;;;;;4966181;28;20067;-77
2023/03/14 17:41:12;;;;;;;4.15;0.80;;;8.60;94.80;;;;;;4966320;28;20094;-73
2023/03/14 17:43:40;;;;;;;7.50;1.08;;;8.40;95.80;;;;;;4948919;28;20054;-70
2023/03/14 17:46:10;;;;;;;3.10;0.50;;;8.20;97.10;;;;;;4966447;28;20027;-71
2023/03/14 17:48:48;;;;;;;4.50;1.00;;;8.00;97.60;;;;;;4965679;28;20128;-71
2023/03/14 17:51:16;;;;;;;4.22;0.90;;;7.80;99.30;;;;;;4965801;28;20293;-72
2023/03/14 17:53:42;;;;;;;6.65;1.23;;;7.70;99.90;;;;;;4961191;28;20046;-72
2023/03/14 17:56:09;;;;;;;6.10;0.88;;;7.60;99.90;;;;;;4969098;28;20047;-72
2023/03/14 17:58:37;;;;;;;4.07;0.90;;;7.60;99.90;;;;;;4965633;28;20038;-70
2023/03/14 18:01:12;;;;;;;2.55;0.80;;;7.70;99.90;;;;;;4966070;28;20135;-71
2023/03/14 18:03:38;;;;;;;5.20;0.80;;;7.70;99.90;;;;;;4964243;28;20050;-71
2023/03/14 18:06:05;;;;;;;5.00;0.77;;;7.70;99.90;;;;;;4965770;28;20031;-70
2023/03/14 18:08:31;;;;;;;6.00;1.10;;;7.70;99.90;;;;;;4965586;28;20036;-72
2023/03/14 18:10:57;;;;;;;6.53;0.77;;;7.60;99.90;;;;;;4966025;28;20027;-75
2023/03/14 18:13:22;;;;;;;9.57;0.88;;;7.70;99.90;;;;;;4948153;29;20031;-73
2023/03/14 18:15:48;;;;;;;4.45;1.10;;;7.70;99.90;;;;;;4965746;28;20082;-72
2023/03/14 18:18:14;;;;;;;7.22;1.10;;;7.70;99.90;;;;;;4964530;28;20210;-71
2023/03/14 18:20:40;;;;;;;4.38;1.40;;;7.10;99.90;;;;;;4965636;28;20071;-73
2023/03/14 18:23:06;;;;;;;6.47;1.50;;;6.30;99.90;;;;;;4965402;28;20221;-73
2023/03/14 18:25:32;;;;;;;6.28;1.17;;;6.00;99.90;;;;;;4964811;28;20373;-73
2023/03/14 18:27:58;;;;;;;3.38;1.27;;;5.90;99.90;;;;;;4965417;28;20066;-71
2023/03/14 18:30:24;;;;;;;4.85;1.40;;;5.70;99.90;;;;;;4964917;28;20094;-73
2023/03/14 18:32:50;;;;;;;2.45;1.00;;;5.60;99.90;;;;;;4965249;28;20063;-72